sensor_id;sensor_type;location;lat;lon;timestamp;pressure;altitude;pressure_sealevel;temperature;humidity
10466;BME280;5280;42.600;23.556;2023-04-30T00:00:07;93114.84;;;10.77;77.49
10466;BME280;5280;42.600;23.556;2023-04-30T00:02:35;93104.34;;;10.66;77.82
10466;BME280;5280;42.600;23.556;2023-04-30T00:05:02;93098.16;;;10.56;78.74
10466;BME280;5280;42.600;23.556;2023-04-30T00:07:29;93112.06;;;10.58;78.96
10466;BME280;5280;42.600;23.556;2023-04-30T00:09:57;93114.81;;;10.56;79.15
10466;BME280;5280;42.600;23.556;2023-04-30T00:12:24;93116.44;;;10.48;79.71
10466;BME280;5280;42.600;23.556;2023-04-30T00:14:51;93087.97;;;10.30;79.93
10466;BME280;5280;42.600;23.556;2023-04-30T00:17:20;93109.28;;;10.39;79.92
10466;BME280;5280;42.600;23.556;2023-04-30T00:19:47;93116.72;;;10.45;80.18
10466;BME280;5280;42.600;23.556;2023-04-30T00:22:15;93112.50;;;10.42;80.41
10466;BME280;5280;42.600;23.556;2023-04-30T00:24:42;93089.75;;;10.30;80.28
10466;BME280;5280;42.600;23.556;2023-04-30T00:27:10;93086.00;;;10.32;80.39
10466;BME280;5280;42.600;23.556;2023-04-30T00:29:37;93104.13;;;10.37;80.67
10466;BME280;5280;42.600;23.556;2023-04-30T00:32:04;93088.00;;;10.19;80.93
10466;BME280;5280;42.600;23.556;2023-04-30T00:34:31;93041.75;;;9.93;80.64
10466;BME280;5280;42.600;23.556;2023-04-30T00:36:58;93094.25;;;10.18;80.82
10466;BME280;5280;42.600;23.556;2023-04-30T00:39:25;93108.50;;;10.27;80.82
10466;BME280;5280;42.600;23.556;2023-04-30T00:41:51;93104.53;;;10.21;80.76
10466;BME280;5280;42.600;23.556;2023-04-30T00:44:19;93116.56;;;10.25;81.29
10466;BME280;5280;42.600;23.556;2023-04-30T00:46:46;93107.69;;;10.15;81.59
10466;BME280;5280;42.600;23.556;2023-04-30T00:49:13;93082.66;;;9.99;81.81
10466;BME280;5280;42.600;23.556;2023-04-30T00:51:40;93102.16;;;10.07;82.58
10466;BME280;5280;42.600;23.556;2023-04-30T00:54:07;93113.19;;;10.12;82.87
10466;BME280;5280;42.600;23.556;2023-04-30T00:56:34;93099.91;;;10.03;82.77
10466;BME280;5280;42.600;23.556;2023-04-30T00:59:01;93095.25;;;9.95;83.51
10466;BME280;5280;42.600;23.556;2023-04-30T01:01:29;93082.81;;;9.86;83.25
10466;BME280;5280;42.600;23.556;2023-04-30T01:03:57;93078.72;;;9.82;83.46
10466;BME280;5280;42.600;23.556;2023-04-30T01:06:26;93098.97;;;9.92;83.97
10466;BME280;5280;42.600;23.556;2023-04-30T01:08:53;93100.91;;;9.90;84.34
10466;BME280;5280;42.600;23.556;2023-04-30T01:11:29;93096.22;;;9.94;84.15
10466;BME280;5280;42.600;23.556;2023-04-30T01:14:07;93103.19;;;9.95;84.33
10466;BME280;5280;42.600;23.556;2023-04-30T01:16:45;93108.69;;;9.92;84.17
10466;BME280;5280;42.600;23.556;2023-04-30T01:19:28;93107.84;;;9.91;84.53
10466;BME280;5280;42.600;23.556;2023-04-30T01:22:02;93102.25;;;9.85;84.54
10466;BME280;5280;42.600;23.556;2023-04-30T01:24:53;93102.47;;;9.82;85.26
10466;BME280;5280;42.600;23.556;2023-04-30T01:27:31;93101.78;;;9.80;85.59
10466;BME280;5280;42.600;23.556;2023-04-30T01:30:08;93101.06;;;9.78;85.27
10466;BME280;5280;42.600;23.556;2023-04-30T01:32:35;93087.06;;;9.66;85.02
10466;BME280;5280;42.600;23.556;2023-04-30T01:35:02;93103.69;;;9.78;85.28
10466;BME280;5280;42.600;23.556;2023-04-30T01:37:34;93105.38;;;9.79;85.10
10466;BME280;5280;42.600;23.556;2023-04-30T01:40:19;93115.34;;;9.75;84.62
10466;BME280;5280;42.600;23.556;2023-04-30T01:42:52;93109.47;;;9.72;85.10
10466;BME280;5280;42.600;23.556;2023-04-30T01:45:32;93107.19;;;9.67;85.60
10466;BME280;5280;42.600;23.556;2023-04-30T01:48:15;93064.91;;;9.46;86.18
10466;BME280;5280;42.600;23.556;2023-04-30T01:50:48;93105.66;;;9.65;86.59
10466;BME280;5280;42.600;23.556;2023-04-30T01:53:20;93099.78;;;9.61;87.38
10466;BME280;5280;42.600;23.556;2023-04-30T01:55:50;93053.94;;;9.30;86.70
10466;BME280;5280;42.600;23.556;2023-04-30T01:58:24;93076.56;;;9.44;86.77
10466;BME280;5280;42.600;23.556;2023-04-30T02:00:53;93100.03;;;9.58;86.87
10466;BME280;5280;42.600;23.556;2023-04-30T02:03:20;93095.84;;;9.56;86.80
10466;BME280;5280;42.600;23.556;2023-04-30T02:05:47;93092.75;;;9.50;87.45
10466;BME280;5280;42.600;23.556;2023-04-30T02:08:14;93094.38;;;9.51;86.61
10466;BME280;5280;42.600;23.556;2023-04-30T02:10:41;93093.56;;;9.51;87.24
10466;BME280;5280;42.600;23.556;2023-04-30T02:13:08;93077.50;;;9.43;87.53
10466;BME280;5280;42.600;23.556;2023-04-30T02:15:34;93097.06;;;9.40;87.17
10466;BME280;5280;42.600;23.556;2023-04-30T02:18:03;93081.47;;;9.37;87.18
10466;BME280;5280;42.600;23.556;2023-04-30T02:20:31;93107.94;;;9.47;86.99
10466;BME280;5280;42.600;23.556;2023-04-30T02:22:57;93099.44;;;9.43;87.45
10466;BME280;5280;42.600;23.556;2023-04-30T02:25:24;93085.31;;;9.33;88.28
10466;BME280;5280;42.600;23.556;2023-04-30T02:27:51;93102.34;;;9.40;86.93
10466;BME280;5280;42.600;23.556;2023-04-30T02:30:18;93103.28;;;9.39;86.23
10466;BME280;5280;42.600;23.556;2023-04-30T02:32:45;93092.53;;;9.31;86.30
10466;BME280;5280;42.600;23.556;2023-04-30T02:35:13;93065.69;;;9.15;86.21
10466;BME280;5280;42.600;23.556;2023-04-30T02:37:40;93095.00;;;9.33;87.40
10466;BME280;5280;42.600;23.556;2023-04-30T02:40:08;93086.88;;;9.25;87.25
10466;BME280;5280;42.600;23.556;2023-04-30T02:42:35;93097.19;;;9.28;87.51
10466;BME280;5280;42.600;23.556;2023-04-30T02:45:01;93094.91;;;9.23;87.83
10466;BME280;5280;42.600;23.556;2023-04-30T02:47:28;93096.84;;;9.21;88.27
10466;BME280;5280;42.600;23.556;2023-04-30T02:49:55;93100.91;;;9.25;88.96
10466;BME280;5280;42.600;23.556;2023-04-30T02:52:24;93064.63;;;8.95;88.45
10466;BME280;5280;42.600;23.556;2023-04-30T02:54:51;93117.19;;;9.19;88.69
10466;BME280;5280;42.600;23.556;2023-04-30T02:57:17;93105.44;;;9.12;88.36
10466;BME280;5280;42.600;23.556;2023-04-30T02:59:44;93070.34;;;8.89;89.20
10466;BME280;5280;42.600;23.556;2023-04-30T03:02:11;93107.75;;;9.05;89.52
10466;BME280;5280;42.600;23.556;2023-04-30T03:04:38;93109.66;;;9.03;89.90
10466;BME280;5280;42.600;23.556;2023-04-30T03:07:04;93103.31;;;9.06;89.77
10466;BME280;5280;42.600;23.556;2023-04-30T03:09:33;93098.25;;;9.03;89.95
10466;BME280;5280;42.600;23.556;2023-04-30T03:12:00;93119.63;;;9.11;90.53
10466;BME280;5280;42.600;23.556;2023-04-30T03:14:27;93117.19;;;9.08;90.88
10466;BME280;5280;42.600;23.556;2023-04-30T03:16:53;93087.22;;;8.87;89.59
10466;BME280;5280;42.600;23.556;2023-04-30T03:19:20;93110.75;;;9.01;90.13
10466;BME280;5280;42.600;23.556;2023-04-30T03:21:49;93107.38;;;8.99;91.03
10466;BME280;5280;42.600;23.556;2023-04-30T03:24:16;93116.34;;;9.07;90.45
10466;BME280;5280;42.600;23.556;2023-04-30T03:26:44;93098.50;;;9.00;89.44
10466;BME280;5280;42.600;23.556;2023-04-30T03:29:11;93126.44;;;9.14;90.18
10466;BME280;5280;42.600;23.556;2023-04-30T03:31:39;93121.25;;;9.12;89.25
10466;BME280;5280;42.600;23.556;2023-04-30T03:34:06;93102.69;;;9.02;90.62
10466;BME280;5280;42.600;23.556;2023-04-30T03:36:32;93133.03;;;9.19;91.84
10466;BME280;5280;42.600;23.556;2023-04-30T03:38:59;93116.97;;;9.11;93.38
10466;BME280;5280;42.600;23.556;2023-04-30T03:41:26;93127.00;;;9.17;93.28
10466;BME280;5280;42.600;23.556;2023-04-30T03:43:55;93128.69;;;9.18;93.00
10466;BME280;5280;42.600;23.556;2023-04-30T03:46:22;93128.69;;;9.18;93.57
10466;BME280;5280;42.600;23.556;2023-04-30T03:48:48;93127.97;;;9.27;92.05
10466;BME280;5280;42.600;23.556;2023-04-30T03:51:20;93122.22;;;9.22;91.99
10466;BME280;5280;42.600;23.556;2023-04-30T03:53:47;93131.94;;;9.33;92.76
10466;BME280;5280;42.600;23.556;2023-04-30T03:56:14;93117.69;;;9.24;93.32
10466;BME280;5280;42.600;23.556;2023-04-30T03:58:41;93130.13;;;9.33;94.44
10466;BME280;5280;42.600;23.556;2023-04-30T04:01:09;93140.47;;;9.36;95.36
10466;BME280;5280;42.600;23.556;2023-04-30T04:03:36;93128.13;;;9.26;95.39
10466;BME280;5280;42.600;23.556;2023-04-30T04:06:03;93122.34;;;9.32;95.89
10466;BME280;5280;42.600;23.556;2023-04-30T04:08:30;93135.53;;;9.43;96.73
10466;BME280;5280;42.600;23.556;2023-04-30T04:10:57;93108.34;;;9.31;97.83
10466;BME280;5280;42.600;23.556;2023-04-30T04:13:23;93126.28;;;9.48;98.18
10466;BME280;5280;42.600;23.556;2023-04-30T04:15:50;93152.41;;;9.63;98.79
10466;BME280;5280;42.600;23.556;2023-04-30T04:18:18;93107.94;;;9.47;98.37
10466;BME280;5280;42.600;23.556;2023-04-30T04:20:45;93152.41;;;9.74;98.31
10466;BME280;5280;42.600;23.556;2023-04-30T04:23:11;93152.50;;;9.83;97.41
10466;BME280;5280;42.600;23.556;2023-04-30T04:25:38;93158.84;;;9.92;97.45
10466;BME280;5280;42.600;23.556;2023-04-30T04:28:06;93153.47;;;9.93;96.54
10466;BME280;5280;42.600;23.556;2023-04-30T04:30:32;93156.66;;;10.08;96.39
10466;BME280;5280;42.600;23.556;2023-04-30T04:32:59;93144.66;;;10.04;95.61
10466;BME280;5280;42.600;23.556;2023-04-30T04:35:27;93143.06;;;10.13;97.16
10466;BME280;5280;42.600;23.556;2023-04-30T04:37:54;93155.19;;;10.26;96.05
10466;BME280;5280;42.600;23.556;2023-04-30T04:40:21;93159.28;;;10.30;96.27
10466;BME280;5280;42.600;23.556;2023-04-30T04:42:49;93160.66;;;10.46;95.42
10466;BME280;5280;42.600;23.556;2023-04-30T04:45:16;93165.41;;;10.52;95.77
10466;BME280;5280;42.600;23.556;2023-04-30T04:47:43;93144.94;;;10.44;94.77
10466;BME280;5280;42.600;23.556;2023-04-30T04:50:10;93170.53;;;10.64;93.83
10466;BME280;5280;42.600;23.556;2023-04-30T04:52:38;93138.16;;;10.51;94.44
10466;BME280;5280;42.600;23.556;2023-04-30T04:55:06;93168.66;;;10.76;94.10
10466;BME280;5280;42.600;23.556;2023-04-30T04:57:33;93172.38;;;10.85;93.62
10466;BME280;5280;42.600;23.556;2023-04-30T05:00:00;93171.84;;;10.91;92.34
10466;BME280;5280;42.600;23.556;2023-04-30T05:02:26;93171.19;;;10.98;92.70
10466;BME280;5280;42.600;23.556;2023-04-30T05:04:54;93131.94;;;10.73;92.49
10466;BME280;5280;42.600;23.556;2023-04-30T05:07:21;93148.13;;;11.00;94.24
10466;BME280;5280;42.600;23.556;2023-04-30T05:09:49;93179.00;;;11.20;95.00
10466;BME280;5280;42.600;23.556;2023-04-30T05:12:15;93164.56;;;11.25;92.58
10466;BME280;5280;42.600;23.556;2023-04-30T05:14:42;93161.50;;;11.29;92.50
10466;BME280;5280;42.600;23.556;2023-04-30T05:17:09;93172.31;;;11.47;90.74
10466;BME280;5280;42.600;23.556;2023-04-30T05:19:36;93176.50;;;11.49;90.16
10466;BME280;5280;42.600;23.556;2023-04-30T05:22:03;93154.06;;;11.44;91.09
10466;BME280;5280;42.600;23.556;2023-04-30T05:24:30;93174.50;;;11.72;91.73
10466;BME280;5280;42.600;23.556;2023-04-30T05:26:58;93174.59;;;11.61;91.67
10466;BME280;5280;42.600;23.556;2023-04-30T05:29:26;93127.81;;;11.31;91.59
10466;BME280;5280;42.600;23.556;2023-04-30T05:31:53;93123.63;;;11.29;90.45
10466;BME280;5280;42.600;23.556;2023-04-30T05:34:20;93185.84;;;11.74;89.46
10466;BME280;5280;42.600;23.556;2023-04-30T05:36:47;93182.81;;;11.79;88.77
10466;BME280;5280;42.600;23.556;2023-04-30T05:39:16;93171.78;;;11.74;87.79
10466;BME280;5280;42.600;23.556;2023-04-30T05:41:43;93162.88;;;11.75;87.91
10466;BME280;5280;42.600;23.556;2023-04-30T05:44:11;93165.25;;;11.78;87.18
10466;BME280;5280;42.600;23.556;2023-04-30T05:46:38;93180.91;;;11.90;87.02
10466;BME280;5280;42.600;23.556;2023-04-30T05:49:05;93180.63;;;11.93;88.17
10466;BME280;5280;42.600;23.556;2023-04-30T05:51:32;93185.22;;;12.01;88.47
10466;BME280;5280;42.600;23.556;2023-04-30T05:53:59;93178.13;;;12.01;89.61
10466;BME280;5280;42.600;23.556;2023-04-30T05:56:26;93146.91;;;11.95;90.90
10466;BME280;5280;42.600;23.556;2023-04-30T05:58:53;93180.81;;;12.21;89.46
10466;BME280;5280;42.600;23.556;2023-04-30T06:01:21;93184.50;;;12.29;89.16
10466;BME280;5280;42.600;23.556;2023-04-30T06:03:48;93181.13;;;12.27;89.04
10466;BME280;5280;42.600;23.556;2023-04-30T06:06:15;93160.34;;;12.23;89.17
10466;BME280;5280;42.600;23.556;2023-04-30T06:08:42;93182.84;;;12.47;87.72
10466;BME280;5280;42.600;23.556;2023-04-30T06:11:10;93184.09;;;12.53;87.30
10466;BME280;5280;42.600;23.556;2023-04-30T06:13:37;93191.50;;;12.59;87.15
10466;BME280;5280;42.600;23.556;2023-04-30T06:16:05;93161.09;;;12.54;87.13
10466;BME280;5280;42.600;23.556;2023-04-30T06:18:33;93159.28;;;12.54;87.73
10466;BME280;5280;42.600;23.556;2023-04-30T06:21:00;93183.13;;;12.73;87.52
10466;BME280;5280;42.600;23.556;2023-04-30T06:23:27;93186.22;;;12.88;86.41
10466;BME280;5280;42.600;23.556;2023-04-30T06:25:53;93178.97;;;12.90;86.65
10466;BME280;5280;42.600;23.556;2023-04-30T06:28:20;93178.13;;;12.89;86.49
10466;BME280;5280;42.600;23.556;2023-04-30T06:30:47;93186.63;;;13.03;86.99
10466;BME280;5280;42.600;23.556;2023-04-30T06:33:14;93188.44;;;13.02;86.22
10466;BME280;5280;42.600;23.556;2023-04-30T06:35:42;93159.97;;;12.75;85.54
10466;BME280;5280;42.600;23.556;2023-04-30T06:38:09;93167.34;;;13.01;85.17
10466;BME280;5280;42.600;23.556;2023-04-30T06:40:35;93156.72;;;13.01;85.89
10466;BME280;5280;42.600;23.556;2023-04-30T06:43:02;93185.94;;;13.20;86.57
10466;BME280;5280;42.600;23.556;2023-04-30T06:45:31;93162.34;;;13.17;85.32
10466;BME280;5280;42.600;23.556;2023-04-30T06:47:58;93199.63;;;13.25;84.10
10466;BME280;5280;42.600;23.556;2023-04-30T06:50:25;93187.47;;;13.22;85.57
10466;BME280;5280;42.600;23.556;2023-04-30T06:52:53;93183.00;;;13.23;85.93
10466;BME280;5280;42.600;23.556;2023-04-30T06:55:20;93199.44;;;13.36;85.93
10466;BME280;5280;42.600;23.556;2023-04-30T06:57:47;93190.09;;;13.42;84.84
10466;BME280;5280;42.600;23.556;2023-04-30T07:00:14;93204.03;;;13.53;83.39
10466;BME280;5280;42.600;23.556;2023-04-30T07:02:41;93208.88;;;13.67;84.25
10466;BME280;5280;42.600;23.556;2023-04-30T07:05:08;93204.59;;;13.57;81.97
10466;BME280;5280;42.600;23.556;2023-04-30T07:07:37;93213.75;;;13.72;82.96
10466;BME280;5280;42.600;23.556;2023-04-30T07:10:06;93213.63;;;13.73;80.98
10466;BME280;5280;42.600;23.556;2023-04-30T07:12:33;93215.13;;;13.86;76.45
10466;BME280;5280;42.600;23.556;2023-04-30T07:15:00;93211.75;;;13.93;73.01
10466;BME280;5280;42.600;23.556;2023-04-30T07:17:27;93211.03;;;13.91;71.99
10466;BME280;5280;42.600;23.556;2023-04-30T07:19:54;93218.69;;;14.04;73.23
10466;BME280;5280;42.600;23.556;2023-04-30T07:22:21;93216.63;;;14.25;73.08
10466;BME280;5280;42.600;23.556;2023-04-30T07:24:51;93214.91;;;14.43;72.23
10466;BME280;5280;42.600;23.556;2023-04-30T07:27:19;93214.19;;;14.69;73.83
10466;BME280;5280;42.600;23.556;2023-04-30T07:29:46;93201.22;;;14.83;67.47
10466;BME280;5280;42.600;23.556;2023-04-30T07:32:12;93210.16;;;15.00;64.75
10466;BME280;5280;42.600;23.556;2023-04-30T07:34:40;93220.31;;;15.14;59.99
10466;BME280;5280;42.600;23.556;2023-04-30T07:37:07;93218.44;;;15.15;61.17
10466;BME280;5280;42.600;23.556;2023-04-30T07:39:34;93213.03;;;15.24;63.45
10466;BME280;5280;42.600;23.556;2023-04-30T07:42:01;93221.72;;;15.44;61.68
10466;BME280;5280;42.600;23.556;2023-04-30T07:44:30;93210.22;;;15.43;60.01
10466;BME280;5280;42.600;23.556;2023-04-30T07:46:57;93221.66;;;15.54;62.83
10466;BME280;5280;42.600;23.556;2023-04-30T07:49:24;93234.81;;;15.55;60.12
10466;BME280;5280;42.600;23.556;2023-04-30T07:51:50;93221.91;;;15.50;61.00
10466;BME280;5280;42.600;23.556;2023-04-30T07:54:17;93235.97;;;15.53;61.27
10466;BME280;5280;42.600;23.556;2023-04-30T07:56:44;93240.97;;;15.56;61.97
10466;BME280;5280;42.600;23.556;2023-04-30T07:59:13;93212.81;;;15.35;62.04
10466;BME280;5280;42.600;23.556;2023-04-30T08:01:41;93234.16;;;15.53;62.49
10466;BME280;5280;42.600;23.556;2023-04-30T08:04:08;93237.16;;;15.40;61.04
10466;BME280;5280;42.600;23.556;2023-04-30T08:06:34;93212.75;;;15.09;63.60
10466;BME280;5280;42.600;23.556;2023-04-30T08:09:01;93233.69;;;15.22;64.94
10466;BME280;5280;42.600;23.556;2023-04-30T08:11:29;93218.63;;;15.13;64.46
10466;BME280;5280;42.600;23.556;2023-04-30T08:13:55;93228.72;;;15.09;63.69
10466;BME280;5280;42.600;23.556;2023-04-30T08:16:22;93227.91;;;15.09;66.50
10466;BME280;5280;42.600;23.556;2023-04-30T08:18:53;93231.16;;;15.03;62.76
10466;BME280;5280;42.600;23.556;2023-04-30T08:21:20;93202.66;;;14.78;62.75
10466;BME280;5280;42.600;23.556;2023-04-30T08:23:47;93232.47;;;14.99;61.08
10466;BME280;5280;42.600;23.556;2023-04-30T08:26:14;93204.00;;;14.82;62.61
10466;BME280;5280;42.600;23.556;2023-04-30T08:28:40;93233.06;;;14.93;64.03
10466;BME280;5280;42.600;23.556;2023-04-30T08:31:08;93226.84;;;15.02;62.16
10466;BME280;5280;42.600;23.556;2023-04-30T08:33:35;93213.59;;;15.10;61.76
10466;BME280;5280;42.600;23.556;2023-04-30T08:36:04;93164.47;;;14.87;60.26
10466;BME280;5280;42.600;23.556;2023-04-30T08:38:31;93221.59;;;15.28;63.07
10466;BME280;5280;42.600;23.556;2023-04-30T08:41:04;93228.97;;;15.52;59.99
10466;BME280;5280;42.600;23.556;2023-04-30T08:43:34;93204.34;;;15.40;60.79
10466;BME280;5280;42.600;23.556;2023-04-30T08:46:01;93234.28;;;15.52;61.81
10466;BME280;5280;42.600;23.556;2023-04-30T08:48:29;93213.38;;;15.39;60.20
10466;BME280;5280;42.600;23.556;2023-04-30T08:50:58;93217.47;;;15.33;62.46
10466;BME280;5280;42.600;23.556;2023-04-30T08:53:27;93233.81;;;15.38;62.07
10466;BME280;5280;42.600;23.556;2023-04-30T08:55:55;93236.13;;;15.33;62.35
10466;BME280;5280;42.600;23.556;2023-04-30T08:58:22;93238.06;;;15.31;62.83
10466;BME280;5280;42.600;23.556;2023-04-30T09:00:49;93239.00;;;15.22;65.42
10466;BME280;5280;42.600;23.556;2023-04-30T09:03:16;93233.16;;;15.19;75.08
10466;BME280;5280;42.600;23.556;2023-04-30T09:05:43;93218.38;;;15.06;83.35
10466;BME280;5280;42.600;23.556;2023-04-30T09:08:15;93212.22;;;15.06;88.50
10466;BME280;5280;42.600;23.556;2023-04-30T09:10:44;93209.88;;;15.03;93.70
10466;BME280;5280;42.600;23.556;2023-04-30T09:13:14;93204.47;;;15.13;97.91
10466;BME280;5280;42.600;23.556;2023-04-30T09:15:41;93187.97;;;14.91;98.91
10466;BME280;5280;42.600;23.556;2023-04-30T09:18:12;93202.72;;;15.03;100.00
10466;BME280;5280;42.600;23.556;2023-04-30T09:20:57;93187.59;;;15.04;100.00
10466;BME280;5280;42.600;23.556;2023-04-30T09:23:25;93176.78;;;15.23;100.00
10466;BME280;5280;42.600;23.556;2023-04-30T09:25:53;93182.38;;;15.38;99.50
10466;BME280;5280;42.600;23.556;2023-04-30T09:28:21;93194.38;;;15.60;91.29
10466;BME280;5280;42.600;23.556;2023-04-30T09:30:51;93191.72;;;15.60;83.70
10466;BME280;5280;42.600;23.556;2023-04-30T09:33:18;93168.28;;;15.63;85.85
10466;BME280;5280;42.600;23.556;2023-04-30T09:35:44;93174.03;;;15.76;86.50
10466;BME280;5280;42.600;23.556;2023-04-30T09:38:26;93191.09;;;15.91;80.58
10466;BME280;5280;42.600;23.556;2023-04-30T09:40:54;93172.19;;;16.03;74.65
10466;BME280;5280;42.600;23.556;2023-04-30T09:43:21;93166.22;;;16.09;65.33
10466;BME280;5280;42.600;23.556;2023-04-30T09:45:48;93179.09;;;16.29;69.12
10466;BME280;5280;42.600;23.556;2023-04-30T09:48:16;93172.03;;;16.46;67.68
10466;BME280;5280;42.600;23.556;2023-04-30T09:50:43;93166.59;;;16.64;60.83
10466;BME280;5280;42.600;23.556;2023-04-30T09:53:14;93176.66;;;16.94;63.12
10466;BME280;5280;42.600;23.556;2023-04-30T09:55:43;93174.84;;;17.19;60.50
10466;BME280;5280;42.600;23.556;2023-04-30T09:58:13;93164.66;;;17.39;55.37
10466;BME280;5280;42.600;23.556;2023-04-30T10:00:41;93179.22;;;17.52;55.14
10466;BME280;5280;42.600;23.556;2023-04-30T10:03:09;93157.34;;;17.65;61.07
10466;BME280;5280;42.600;23.556;2023-04-30T10:05:39;93168.31;;;18.02;59.48
10466;BME280;5280;42.600;23.556;2023-04-30T10:08:11;93161.56;;;18.15;51.97
10466;BME280;5280;42.600;23.556;2023-04-30T10:10:40;93171.34;;;18.38;55.93
10466;BME280;5280;42.600;23.556;2023-04-30T10:13:13;93158.63;;;18.57;56.59
10466;BME280;5280;42.600;23.556;2023-04-30T10:15:44;93161.72;;;18.68;54.33
10466;BME280;5280;42.600;23.556;2023-04-30T10:18:19;93177.97;;;18.67;53.08
10466;BME280;5280;42.600;23.556;2023-04-30T10:20:49;93184.94;;;18.37;52.95
10466;BME280;5280;42.600;23.556;2023-04-30T10:23:17;93186.91;;;17.88;53.16
10466;BME280;5280;42.600;23.556;2023-04-30T10:25:44;93187.94;;;17.62;57.87
10466;BME280;5280;42.600;23.556;2023-04-30T10:28:13;93190.91;;;17.51;55.00
10466;BME280;5280;42.600;23.556;2023-04-30T10:30:40;93196.22;;;17.03;56.55
10466;BME280;5280;42.600;23.556;2023-04-30T10:33:14;93193.66;;;16.85;60.80
10466;BME280;5280;42.600;23.556;2023-04-30T10:35:50;93186.94;;;16.65;63.11
10466;BME280;5280;42.600;23.556;2023-04-30T10:38:23;93177.47;;;16.36;66.90
10466;BME280;5280;42.600;23.556;2023-04-30T10:40:54;93170.59;;;16.26;71.60
10466;BME280;5280;42.600;23.556;2023-04-30T10:43:24;93156.25;;;16.19;78.92
10466;BME280;5280;42.600;23.556;2023-04-30T10:45:52;93156.41;;;16.17;78.22
10466;BME280;5280;42.600;23.556;2023-04-30T10:48:21;93165.06;;;16.19;79.09
10466;BME280;5280;42.600;23.556;2023-04-30T10:50:51;93153.41;;;16.20;83.48
10466;BME280;5280;42.600;23.556;2023-04-30T10:53:19;93155.59;;;16.25;81.15
10466;BME280;5280;42.600;23.556;2023-04-30T10:55:52;93143.31;;;16.32;83.93
10466;BME280;5280;42.600;23.556;2023-04-30T10:58:25;93147.59;;;16.25;65.35
10466;BME280;5280;42.600;23.556;2023-04-30T11:00:59;93159.31;;;16.32;69.65
10466;BME280;5280;42.600;23.556;2023-04-30T11:03:28;93164.50;;;16.33;65.73
10466;BME280;5280;42.600;23.556;2023-04-30T11:05:55;93195.47;;;16.34;65.43
10466;BME280;5280;42.600;23.556;2023-04-30T11:08:32;93187.72;;;16.15;71.22
10466;BME280;5280;42.600;23.556;2023-04-30T11:10:59;93214.91;;;16.19;71.26
10466;BME280;5280;42.600;23.556;2023-04-30T11:13:37;93216.28;;;15.97;78.60
10466;BME280;5280;42.600;23.556;2023-04-30T11:16:04;93213.25;;;15.92;80.23
10466;BME280;5280;42.600;23.556;2023-04-30T11:18:32;93208.06;;;15.65;86.15
10466;BME280;5280;42.600;23.556;2023-04-30T11:21:00;93198.22;;;15.57;87.99
10466;BME280;5280;42.600;23.556;2023-04-30T11:23:27;93199.03;;;15.58;86.73
10466;BME280;5280;42.600;23.556;2023-04-30T11:25:55;93195.06;;;15.62;89.10
10466;BME280;5280;42.600;23.556;2023-04-30T11:28:32;93195.41;;;15.59;90.26
10466;BME280;5280;42.600;23.556;2023-04-30T11:31:00;93197.69;;;15.54;84.27
10466;BME280;5280;42.600;23.556;2023-04-30T11:33:29;93193.97;;;15.72;82.96
10466;BME280;5280;42.600;23.556;2023-04-30T11:35:58;93153.06;;;15.56;80.82
10466;BME280;5280;42.600;23.556;2023-04-30T11:38:26;93197.06;;;15.85;71.58
10466;BME280;5280;42.600;23.556;2023-04-30T11:40:53;93157.81;;;15.70;70.70
10466;BME280;5280;42.600;23.556;2023-04-30T11:43:22;93189.88;;;16.12;65.42
10466;BME280;5280;42.600;23.556;2023-04-30T11:46:05;93206.44;;;16.23;69.14
10466;BME280;5280;42.600;23.556;2023-04-30T11:48:33;93203.44;;;16.26;66.49
10466;BME280;5280;42.600;23.556;2023-04-30T11:51:12;93203.13;;;16.29;65.50
10466;BME280;5280;42.600;23.556;2023-04-30T11:53:40;93205.47;;;16.32;68.73
10466;BME280;5280;42.600;23.556;2023-04-30T11:56:07;93217.41;;;16.20;71.15
10466;BME280;5280;42.600;23.556;2023-04-30T11:58:35;93215.25;;;16.24;74.36
10466;BME280;5280;42.600;23.556;2023-04-30T12:01:06;93219.56;;;16.17;75.88
10466;BME280;5280;42.600;23.556;2023-04-30T12:03:40;93218.50;;;16.10;82.21
10466;BME280;5280;42.600;23.556;2023-04-30T12:06:09;93221.47;;;15.99;80.18
10466;BME280;5280;42.600;23.556;2023-04-30T12:08:39;93214.75;;;15.94;82.77
10466;BME280;5280;42.600;23.556;2023-04-30T12:11:18;93184.34;;;15.79;95.11
10466;BME280;5280;42.600;23.556;2023-04-30T12:13:49;93191.47;;;15.97;98.39
10466;BME280;5280;42.600;23.556;2023-04-30T12:16:18;93187.97;;;15.96;97.68
10466;BME280;5280;42.600;23.556;2023-04-30T12:18:45;93193.75;;;15.91;83.45
10466;BME280;5280;42.600;23.556;2023-04-30T12:21:12;93195.22;;;15.86;84.92
10466;BME280;5280;42.600;23.556;2023-04-30T12:23:40;93196.78;;;15.71;83.56
10466;BME280;5280;42.600;23.556;2023-04-30T12:26:07;93192.31;;;15.71;87.08
10466;BME280;5280;42.600;23.556;2023-04-30T12:28:34;93173.06;;;15.85;88.04
10466;BME280;5280;42.600;23.556;2023-04-30T12:31:01;93181.00;;;16.03;82.75
10466;BME280;5280;42.600;23.556;2023-04-30T12:33:31;93160.31;;;15.97;80.46
10466;BME280;5280;42.600;23.556;2023-04-30T12:35:58;93174.00;;;16.02;78.62
10466;BME280;5280;42.600;23.556;2023-04-30T12:38:26;93174.84;;;15.77;78.62
10466;BME280;5280;42.600;23.556;2023-04-30T12:40:53;93185.19;;;15.80;79.08
10466;BME280;5280;42.600;23.556;2023-04-30T12:43:20;93178.25;;;15.61;77.84
10466;BME280;5280;42.600;23.556;2023-04-30T12:45:48;93208.41;;;15.62;75.87
10466;BME280;5280;42.600;23.556;2023-04-30T12:48:21;93209.47;;;15.69;77.08
10466;BME280;5280;42.600;23.556;2023-04-30T12:50:54;93231.56;;;15.69;80.42
10466;BME280;5280;42.600;23.556;2023-04-30T12:53:22;93215.06;;;15.66;83.70
10466;BME280;5280;42.600;23.556;2023-04-30T12:56:08;93225.44;;;15.69;90.58
10466;BME280;5280;42.600;23.556;2023-04-30T12:58:37;93227.28;;;15.15;90.53
10466;BME280;5280;42.600;23.556;2023-04-30T13:01:05;93213.28;;;14.95;96.06
10466;BME280;5280;42.600;23.556;2023-04-30T13:03:35;93178.59;;;14.70;97.75
10466;BME280;5280;42.600;23.556;2023-04-30T13:06:04;93165.22;;;14.61;100.00
10466;BME280;5280;42.600;23.556;2023-04-30T13:08:32;93156.84;;;14.39;100.00